Gerlaw, Illinois
Current Conditions -  °F | °C
As of 11:35 AM on Monday 24 Nov 2014 (Local Time) from KGBG Reporting Station
Overcast Overcast  
Wind Chill: 18°   Ceiling: 1400
Heat Index: 30°   Visibility: 10mi
Dew Point: 27°   Wind: 20mph
Humidity: 88%   Direction: 260°W
Pressure: 29.51"   Gusts: 28mph
Location:  40.99°N, 90.6°W
Report Text: KGBG 241735Z AUTO 26017G24KT 10SM OVC014 M01/M03 A2951 RMK AO2 T10101027
Loading
Personal Weather Stations






























Interactive Weather Map New forecast layout! Learn more

10-Day Weather Forecast

Advertisements
Track Severe Weather on mobile